createdAt,value
2022-12-20T00:01:07.376Z,3.90
2022-12-20T00:03:35.247Z,3.90
2022-12-20T00:06:05.159Z,3.90
2022-12-20T00:08:34.866Z,3.90
2022-12-20T00:11:05.092Z,3.90
2022-12-20T00:13:33.406Z,3.90
2022-12-20T00:16:09.791Z,3.90
2022-12-20T00:18:38.794Z,3.90
2022-12-20T00:21:10.395Z,3.90
2022-12-20T00:23:38.921Z,3.90
2022-12-20T00:26:08.458Z,4.00
2022-12-20T00:28:37.633Z,3.90
2022-12-20T00:31:06.367Z,3.90
2022-12-20T00:33:35.051Z,3.90
2022-12-20T00:36:03.249Z,3.90
2022-12-20T00:38:33.073Z,4.00
2022-12-20T00:41:02.201Z,4.00
2022-12-20T00:43:30.404Z,4.00
2022-12-20T00:45:58.415Z,4.00
2022-12-20T00:48:26.994Z,4.10
2022-12-20T00:50:59.857Z,4.10
2022-12-20T00:53:28.284Z,4.20
2022-12-20T00:55:58.691Z,4.10
2022-12-20T00:58:27.277Z,4.10
2022-12-20T01:00:57.178Z,4.10
2022-12-20T01:03:25.979Z,4.10
2022-12-20T01:05:54.813Z,4.10
2022-12-20T01:08:24.464Z,4.00
2022-12-20T01:11:01.478Z,4.00
2022-12-20T01:13:29.699Z,4.10
2022-12-20T01:15:58.092Z,4.10
2022-12-20T01:18:26.207Z,4.10
2022-12-20T01:21:03.024Z,4.20
2022-12-20T01:23:31.238Z,4.20
2022-12-20T01:26:01.675Z,4.20
2022-12-20T01:28:30.351Z,4.20
2022-12-20T01:30:58.824Z,4.20
2022-12-20T01:33:26.814Z,4.20
2022-12-20T01:35:59.570Z,4.20
2022-12-20T01:38:28.425Z,4.20
2022-12-20T01:40:57.364Z,4.20
2022-12-20T01:43:45.989Z,4.30
2022-12-20T09:53:50.192Z,5.90
2022-12-20T09:56:26.040Z,8.20
2022-12-20T09:59:01.675Z,8.20
2022-12-20T10:01:38.397Z,8.30
2022-12-20T10:04:22.789Z,8.70
2022-12-20T10:07:04.905Z,8.80
2022-12-20T10:09:54.657Z,8.90
2022-12-20T10:12:32.267Z,9.00
2022-12-20T10:15:17.508Z,9.10
2022-12-20T10:17:59.759Z,9.20
2022-12-20T10:20:38.563Z,9.30
2022-12-20T10:23:15.857Z,9.30
2022-12-20T10:25:46.037Z,9.50
2022-12-20T10:28:17.165Z,9.60
2022-12-20T10:30:45.972Z,9.60
2022-12-20T10:33:19.087Z,9.70
2022-12-20T10:35:47.749Z,9.80
2022-12-20T10:38:17.712Z,9.90
2022-12-20T10:43:46.287Z,10.00
2022-12-20T10:46:16.790Z,10.10
2022-12-20T10:48:48.669Z,10.10
2022-12-20T10:51:19.445Z,10.10
2022-12-20T10:53:57.443Z,10.30
2022-12-20T10:56:29.183Z,10.30
2022-12-20T10:58:59.885Z,10.40
2022-12-20T11:01:31.780Z,10.30
2022-12-20T11:04:02.831Z,10.30
2022-12-20T11:06:42.469Z,10.40
2022-12-20T11:09:27.084Z,10.40
2022-12-20T11:12:05.468Z,10.30
2022-12-20T11:14:39.144Z,10.30
2022-12-20T11:17:21.265Z,10.20
2022-12-20T11:20:02.320Z,10.20
2022-12-20T11:22:49.918Z,10.20
2022-12-20T11:25:44.949Z,10.20
2022-12-20T11:28:28.576Z,10.40
2022-12-20T11:31:05.045Z,10.60
2022-12-20T11:33:51.596Z,10.70
2022-12-20T11:36:30.587Z,10.90
2022-12-20T11:39:09.530Z,11.00
2022-12-20T11:41:43.121Z,11.10
2022-12-20T11:44:25.815Z,11.00
2022-12-20T11:47:19.751Z,10.90
2022-12-20T11:50:03.194Z,10.90
2022-12-20T11:52:38.636Z,10.70
2022-12-20T11:55:20.747Z,10.60
2022-12-20T11:58:17.511Z,10.50
2022-12-20T12:00:52.377Z,10.40
2022-12-20T12:03:28.030Z,10.30
2022-12-20T12:05:59.431Z,10.30
2022-12-20T12:08:35.396Z,10.40
2022-12-20T12:11:31.915Z,10.50
2022-12-20T12:14:00.520Z,10.70
2022-12-20T12:16:36.249Z,10.70
2022-12-20T12:19:04.870Z,10.80
2022-12-20T12:21:36.419Z,10.90
2022-12-20T12:24:12.588Z,10.80
2022-12-20T12:26:42.126Z,10.80
2022-12-20T12:29:13.814Z,10.80
2022-12-20T12:31:49.033Z,10.60
2022-12-20T12:34:33.796Z,10.70
2022-12-20T12:37:33.754Z,10.70
2022-12-20T12:40:30.851Z,10.80
2022-12-20T12:43:33.333Z,10.90
2022-12-20T12:46:02.819Z,10.90
2022-12-20T12:48:37.315Z,10.90
2022-12-20T12:51:06.462Z,11.00
2022-12-20T12:53:38.902Z,10.90
2022-12-20T12:56:44.002Z,10.90
2022-12-20T12:59:41.020Z,10.90
2022-12-20T13:02:49.918Z,10.80
2022-12-20T13:05:36.882Z,10.80
2022-12-20T13:08:15.810Z,10.60
2022-12-20T13:11:14.017Z,10.70
2022-12-20T13:13:41.969Z,10.70
2022-12-20T13:16:48.346Z,10.60
2022-12-20T13:19:17.703Z,10.60
2022-12-20T13:21:48.671Z,10.30
2022-12-20T13:24:56.204Z,10.20
2022-12-20T13:27:33.620Z,10.10
2022-12-20T13:30:29.284Z,10.00
2022-12-20T13:33:13.656Z,9.90
2022-12-20T13:35:56.983Z,9.90
2022-12-20T13:38:55.854Z,9.90
2022-12-20T13:41:45.096Z,9.90
2022-12-20T13:44:45.578Z,10.00
2022-12-20T13:47:37.270Z,9.90
2022-12-20T13:50:32.388Z,9.80
2022-12-20T13:53:00.836Z,9.70
2022-12-20T13:55:37.120Z,9.40
2022-12-20T13:58:07.891Z,9.20
2022-12-20T14:00:36.084Z,9.20
2022-12-20T14:03:04.823Z,8.80
2022-12-20T14:05:35.093Z,8.60
2022-12-20T14:08:06.476Z,8.50
2022-12-20T14:10:36.721Z,8.50
2022-12-20T14:13:05.056Z,8.50
2022-12-20T14:15:35.610Z,8.50
2022-12-20T14:18:07.816Z,8.50
2022-12-20T14:20:37.695Z,8.50
2022-12-20T14:23:10.326Z,8.50
2022-12-20T14:25:47.771Z,8.40
2022-12-20T14:28:27.616Z,8.50
2022-12-20T14:30:57.186Z,8.50
2022-12-20T14:33:31.439Z,8.40
2022-12-20T14:36:08.113Z,8.30
2022-12-20T14:38:36.313Z,8.00
2022-12-20T14:41:06.007Z,7.80
2022-12-20T14:43:37.663Z,7.30
2022-12-20T14:46:20.238Z,7.30
2022-12-20T14:48:48.497Z,7.30
2022-12-20T14:51:22.074Z,7.30
2022-12-20T14:53:51.655Z,7.40
2022-12-20T14:56:31.294Z,7.30
2022-12-20T14:59:06.424Z,7.20
2022-12-20T15:01:39.921Z,7.30
2022-12-20T15:04:26.278Z,7.40
2022-12-20T15:06:54.493Z,7.30
2022-12-20T15:09:23.098Z,7.30
2022-12-20T15:11:53.053Z,7.30
2022-12-20T15:14:36.860Z,7.20
2022-12-20T15:17:10.024Z,7.20
2022-12-20T15:19:42.233Z,7.10
2022-12-20T15:22:16.236Z,7.00
2022-12-20T15:24:44.603Z,6.70
2022-12-20T15:27:15.934Z,6.80
2022-12-20T15:29:44.325Z,6.90
2022-12-20T15:32:18.013Z,6.80
2022-12-20T15:34:46.444Z,6.30
2022-12-20T15:37:18.744Z,6.40
2022-12-20T15:39:47.757Z,6.30
2022-12-20T15:42:19.448Z,6.30
2022-12-20T15:44:47.828Z,6.30
2022-12-20T15:47:16.925Z,6.30
2022-12-20T15:49:50.158Z,6.40
2022-12-20T15:52:22.123Z,6.30
2022-12-20T15:54:50.746Z,6.30
2022-12-20T15:57:20.848Z,6.40
2022-12-20T16:00:00.609Z,6.30
2022-12-20T16:02:31.363Z,6.30
2022-12-20T16:05:00.082Z,6.40
2022-12-20T16:07:28.356Z,6.20
2022-12-20T16:09:56.286Z,6.30
2022-12-20T16:12:28.216Z,6.20
2022-12-20T16:14:57.044Z,6.00
2022-12-20T16:17:25.374Z,6.20
2022-12-20T16:19:53.355Z,6.10
2022-12-20T16:22:23.371Z,6.20
2022-12-20T16:24:52.014Z,6.30
2022-12-20T16:27:20.321Z,6.40
2022-12-20T16:29:49.970Z,6.50
2022-12-20T16:32:19.758Z,6.30
2022-12-20T16:34:49.776Z,6.40
2022-12-20T16:37:18.076Z,6.50
2022-12-20T16:39:46.314Z,6.50
2022-12-20T16:42:15.702Z,6.40
2022-12-20T16:44:45.484Z,6.40
2022-12-20T16:47:16.013Z,6.50
2022-12-20T16:49:51.815Z,6.50
2022-12-20T16:52:22.324Z,6.50
2022-12-20T16:54:50.914Z,6.50
2022-12-20T16:57:18.859Z,6.50
2022-12-20T16:59:46.955Z,6.50
2022-12-20T17:02:24.964Z,6.60
2022-12-20T17:04:53.291Z,6.60
2022-12-20T17:07:21.283Z,6.60
2022-12-20T17:09:49.488Z,6.70
2022-12-20T17:12:19.210Z,6.50
2022-12-20T17:14:47.473Z,6.70
2022-12-20T17:17:15.845Z,6.70
2022-12-20T17:19:45.131Z,6.70
2022-12-20T17:22:23.846Z,6.70
2022-12-20T17:24:51.907Z,6.60
2022-12-20T17:27:20.245Z,6.60
2022-12-20T17:29:48.522Z,6.50
2022-12-20T17:32:21.985Z,6.40
2022-12-20T17:34:51.867Z,6.40
2022-12-20T17:37:20.886Z,6.40
2022-12-20T17:39:49.244Z,6.30
2022-12-20T17:42:17.830Z,6.40
2022-12-20T17:44:46.766Z,6.40
2022-12-20T17:47:16.915Z,6.30
2022-12-20T17:49:45.205Z,6.30
2022-12-20T17:52:16.056Z,6.40
2022-12-20T17:54:44.777Z,6.20
2022-12-20T17:57:15.213Z,6.30
2022-12-20T17:59:43.800Z,6.30
2022-12-20T18:02:21.662Z,6.30
2022-12-20T18:04:50.078Z,6.30
2022-12-20T18:07:19.781Z,6.50
2022-12-20T18:09:48.901Z,6.60
2022-12-20T18:12:17.260Z,6.50
2022-12-20T18:14:45.829Z,6.50
2022-12-20T18:17:14.082Z,6.60
2022-12-20T18:19:43.816Z,6.60
2022-12-20T18:22:12.256Z,6.60
2022-12-20T18:24:41.570Z,6.70
2022-12-20T18:27:10.038Z,6.70
2022-12-20T18:29:38.020Z,6.70
2022-12-20T18:32:06.828Z,6.80
2022-12-20T18:34:34.812Z,6.80
2022-12-20T18:37:05.397Z,6.70
2022-12-20T18:39:33.567Z,6.70
2022-12-20T18:42:02.861Z,6.60
2022-12-20T18:44:35.736Z,6.60
2022-12-20T18:47:04.728Z,6.50
2022-12-20T18:49:33.349Z,6.50
2022-12-20T18:52:01.590Z,6.60
2022-12-20T18:54:30.416Z,6.50
2022-12-20T18:56:58.467Z,6.50
2022-12-20T18:59:27.989Z,6.40
2022-12-20T19:01:56.040Z,6.40
2022-12-20T19:04:25.263Z,6.30
2022-12-20T19:06:53.571Z,6.40
2022-12-20T19:09:21.639Z,6.30
2022-12-20T19:11:56.259Z,6.30
2022-12-20T19:14:25.454Z,6.30
2022-12-20T19:16:54.869Z,6.20
2022-12-20T19:19:23.040Z,6.20
2022-12-20T19:21:50.985Z,6.30
2022-12-20T19:24:18.878Z,6.30
2022-12-20T19:26:47.167Z,6.40
2022-12-20T19:29:15.031Z,6.40
2022-12-20T19:31:43.026Z,6.40
2022-12-20T19:34:15.176Z,6.50
2022-12-20T19:36:45.280Z,6.40
2022-12-20T19:39:16.315Z,6.40
2022-12-20T19:41:50.676Z,6.30
2022-12-20T19:44:28.335Z,6.40
2022-12-20T19:46:56.419Z,6.40
2022-12-20T19:49:26.257Z,6.40
2022-12-20T19:51:54.168Z,6.60
2022-12-20T19:54:22.215Z,6.50
2022-12-20T19:56:50.159Z,6.60
2022-12-20T19:59:18.096Z,6.50
2022-12-20T20:01:46.399Z,6.50
2022-12-20T20:04:14.343Z,6.50
2022-12-20T20:06:43.811Z,6.50
2022-12-20T20:09:11.770Z,6.50
2022-12-20T20:11:39.925Z,6.50
2022-12-20T20:14:09.501Z,6.60
2022-12-20T20:16:38.041Z,6.70
2022-12-20T20:19:06.230Z,6.70
2022-12-20T20:21:36.343Z,6.60
2022-12-20T20:24:06.675Z,6.60
2022-12-20T20:26:34.630Z,6.70
2022-12-20T20:29:03.152Z,6.70
2022-12-20T20:31:31.826Z,6.70
2022-12-20T20:34:01.001Z,6.70
2022-12-20T20:36:29.943Z,6.70
2022-12-20T20:38:57.873Z,6.70
2022-12-20T20:41:27.143Z,6.60
2022-12-20T20:43:55.286Z,6.60
2022-12-20T20:46:23.335Z,6.60
2022-12-20T20:48:51.415Z,6.70
2022-12-20T20:51:19.619Z,6.70
2022-12-20T20:53:47.674Z,6.70
2022-12-20T20:56:15.602Z,6.70
2022-12-20T20:58:45.020Z,6.70
2022-12-20T21:01:13.071Z,6.70
2022-12-20T21:03:41.268Z,6.80
2022-12-20T21:08:58.066Z,6.60
2022-12-20T21:11:26.206Z,6.70
2022-12-20T21:13:56.600Z,6.70
2022-12-20T21:16:24.732Z,6.70
2022-12-20T21:18:53.345Z,6.70
2022-12-20T21:21:22.014Z,6.70
2022-12-20T21:23:50.312Z,6.70
2022-12-20T21:26:19.794Z,6.80
2022-12-20T21:28:47.878Z,6.80
2022-12-20T21:31:20.291Z,6.80
2022-12-20T21:33:48.292Z,6.80
2022-12-20T21:36:17.892Z,6.80
2022-12-20T21:38:50.394Z,6.90
2022-12-20T21:41:19.938Z,6.80
2022-12-20T21:43:48.020Z,6.70
2022-12-20T21:46:18.235Z,6.60
2022-12-20T21:48:47.142Z,6.60
2022-12-20T21:51:17.639Z,6.60
2022-12-20T21:53:48.249Z,6.50
2022-12-20T21:56:16.945Z,6.50
2022-12-20T21:58:45.923Z,6.50
2022-12-20T22:01:15.422Z,6.50
2022-12-20T22:03:45.510Z,6.40
2022-12-20T22:06:13.564Z,6.30
2022-12-20T22:08:41.536Z,6.30
2022-12-20T22:11:11.253Z,5.90
2022-12-20T22:13:41.843Z,6.10
2022-12-20T22:16:11.485Z,6.10
2022-12-20T22:18:40.543Z,6.10
2022-12-20T22:21:11.599Z,6.20
2022-12-20T22:23:40.107Z,6.10
2022-12-20T22:26:10.825Z,6.10
2022-12-20T22:28:44.636Z,6.10
2022-12-20T22:31:23.007Z,6.00
2022-12-20T22:33:52.518Z,6.00
2022-12-20T22:36:22.736Z,5.90
2022-12-20T22:38:52.397Z,5.90
2022-12-20T22:41:22.484Z,6.10
2022-12-20T22:43:50.694Z,5.90
2022-12-20T22:46:20.119Z,5.90
2022-12-20T22:48:48.721Z,5.90
2022-12-20T22:51:18.440Z,6.00
2022-12-20T22:53:48.529Z,6.10
2022-12-20T22:56:17.967Z,6.10
2022-12-20T22:58:45.988Z,6.10
2022-12-20T23:01:16.098Z,6.20
2022-12-20T23:03:44.965Z,6.10
2022-12-20T23:06:14.951Z,6.10
2022-12-20T23:08:43.247Z,6.10
2022-12-20T23:11:35.086Z,6.20
2022-12-20T23:14:20.889Z,6.10
2022-12-20T23:16:49.008Z,6.10
2022-12-20T23:19:17.141Z,6.00
2022-12-20T23:22:02.349Z,6.20
2022-12-20T23:24:30.694Z,6.10
2022-12-20T23:27:00.000Z,6.10
2022-12-20T23:29:28.233Z,6.10
2022-12-20T23:31:56.230Z,6.10
2022-12-20T23:34:24.511Z,6.10
2022-12-20T23:36:52.563Z,6.10
2022-12-20T23:39:20.412Z,6.20
2022-12-20T23:41:48.265Z,6.20
2022-12-20T23:44:17.681Z,6.20
2022-12-20T23:46:45.723Z,6.10
2022-12-20T23:49:13.698Z,6.20
2022-12-20T23:51:41.738Z,6.30
2022-12-20T23:54:10.326Z,6.40
2022-12-20T23:56:38.207Z,6.40
2022-12-20T23:59:06.443Z,6.40
